sensor_id;sensor_type;location;lat;lon;timestamp;pressure;altitude;pressure_sealevel;temperature;humidity
20909;BME280;10614;53.198;6.570;2022-07-23T00:00:47;101959.53;;;15.57;95.49
20909;BME280;10614;53.198;6.570;2022-07-23T00:02:49;101956.94;;;15.55;95.14
20909;BME280;10614;53.198;6.570;2022-07-23T00:04:50;101956.13;;;15.53;95.84
20909;BME280;10614;53.198;6.570;2022-07-23T00:06:51;101957.06;;;15.52;96.01
20909;BME280;10614;53.198;6.570;2022-07-23T00:08:54;101955.31;;;15.51;95.95
20909;BME280;10614;53.198;6.570;2022-07-23T00:10:56;101958.03;;;15.50;96.15
20909;BME280;10614;53.198;6.570;2022-07-23T00:12:57;101958.97;;;15.49;95.62
20909;BME280;10614;53.198;6.570;2022-07-23T00:14:59;101954.53;;;15.49;96.22
20909;BME280;10614;53.198;6.570;2022-07-23T00:17:00;101951.88;;;15.49;96.55
20909;BME280;10614;53.198;6.570;2022-07-23T00:19:02;101952.72;;;15.50;96.23
20909;BME280;10614;53.198;6.570;2022-07-23T00:21:04;101958.94;;;15.50;95.47
20909;BME280;10614;53.198;6.570;2022-07-23T00:23:05;101951.06;;;15.47;95.32
20909;BME280;10614;53.198;6.570;2022-07-23T00:25:08;101958.31;;;15.44;95.63
20909;BME280;10614;53.198;6.570;2022-07-23T00:27:10;101961.03;;;15.42;96.21
20909;BME280;10614;53.198;6.570;2022-07-23T00:29:11;101949.69;;;15.38;95.11
20909;BME280;10614;53.198;6.570;2022-07-23T00:31:13;101947.09;;;15.37;95.46
20909;BME280;10614;53.198;6.570;2022-07-23T00:33:14;101948.94;;;15.35;95.44
20909;BME280;10614;53.198;6.570;2022-07-23T00:35:16;101946.44;;;15.32;94.90
20909;BME280;10614;53.198;6.570;2022-07-23T00:37:17;101949.34;;;15.26;94.58
20909;BME280;10614;53.198;6.570;2022-07-23T00:39:19;101945.03;;;15.23;95.63
20909;BME280;10614;53.198;6.570;2022-07-23T00:41:22;101946.03;;;15.20;95.49
20909;BME280;10614;53.198;6.570;2022-07-23T00:43:24;101953.16;;;15.18;95.41
20909;BME280;10614;53.198;6.570;2022-07-23T00:45:26;101950.56;;;15.17;95.94
20909;BME280;10614;53.198;6.570;2022-07-23T00:47:28;101947.16;;;15.15;96.34
20909;BME280;10614;53.198;6.570;2022-07-23T00:49:30;101944.50;;;15.15;96.19
20909;BME280;10614;53.198;6.570;2022-07-23T00:51:31;101942.81;;;15.12;96.71
20909;BME280;10614;53.198;6.570;2022-07-23T00:53:33;101949.84;;;15.13;95.78
20909;BME280;10614;53.198;6.570;2022-07-23T00:55:35;101941.09;;;15.11;96.69
20909;BME280;10614;53.198;6.570;2022-07-23T00:57:39;101940.25;;;15.11;96.96
20909;BME280;10614;53.198;6.570;2022-07-23T00:59:41;101945.59;;;15.09;97.01
20909;BME280;10614;53.198;6.570;2022-07-23T01:01:42;101945.69;;;15.08;97.16
20909;BME280;10614;53.198;6.570;2022-07-23T01:03:45;101940.44;;;15.06;97.35
20909;BME280;10614;53.198;6.570;2022-07-23T01:05:46;101935.13;;;15.06;97.58
20909;BME280;10614;53.198;6.570;2022-07-23T01:07:48;101931.63;;;15.06;96.90
20909;BME280;10614;53.198;6.570;2022-07-23T01:09:50;101933.38;;;15.05;97.99
20909;BME280;10614;53.198;6.570;2022-07-23T01:11:52;101930.72;;;15.05;98.02
20909;BME280;10614;53.198;6.570;2022-07-23T01:13:57;101930.69;;;15.07;98.23
20909;BME280;10614;53.198;6.570;2022-07-23T01:15:58;101927.22;;;15.05;98.22
20909;BME280;10614;53.198;6.570;2022-07-23T01:18:00;101922.00;;;15.03;98.31
20909;BME280;10614;53.198;6.570;2022-07-23T01:20:01;101926.38;;;15.04;98.61
20909;BME280;10614;53.198;6.570;2022-07-23T01:22:04;101923.72;;;15.04;98.76
20909;BME280;10614;53.198;6.570;2022-07-23T01:24:07;101914.06;;;15.03;98.61
20909;BME280;10614;53.198;6.570;2022-07-23T01:26:09;101909.66;;;15.02;98.81
20909;BME280;10614;53.198;6.570;2022-07-23T01:28:11;101914.09;;;15.02;98.85
20909;BME280;10614;53.198;6.570;2022-07-23T01:30:12;101910.59;;;15.01;99.12
20909;BME280;10614;53.198;6.570;2022-07-23T01:32:14;101921.25;;;14.99;98.82
20909;BME280;10614;53.198;6.570;2022-07-23T01:34:15;101909.78;;;14.99;98.95
20909;BME280;10614;53.198;6.570;2022-07-23T01:36:17;101915.94;;;14.99;99.31
20909;BME280;10614;53.198;6.570;2022-07-23T01:38:18;101909.66;;;15.02;99.63
20909;BME280;10614;53.198;6.570;2022-07-23T01:40:21;101906.19;;;15.00;98.92
20909;BME280;10614;53.198;6.570;2022-07-23T01:42:22;101903.63;;;14.98;98.92
20909;BME280;10614;53.198;6.570;2022-07-23T01:44:24;101909.00;;;14.97;99.30
20909;BME280;10614;53.198;6.570;2022-07-23T01:46:25;101902.88;;;14.95;100.00
20909;BME280;10614;53.198;6.570;2022-07-23T01:48:27;101903.03;;;14.92;99.20
20909;BME280;10614;53.198;6.570;2022-07-23T01:50:28;101906.56;;;14.91;100.00
20909;BME280;10614;53.198;6.570;2022-07-23T01:52:30;101904.06;;;14.88;100.00
20909;BME280;10614;53.198;6.570;2022-07-23T01:54:32;101905.00;;;14.87;100.00
20909;BME280;10614;53.198;6.570;2022-07-23T01:56:35;101898.81;;;14.86;100.00
20909;BME280;10614;53.198;6.570;2022-07-23T01:58:36;101906.78;;;14.86;100.00
20909;BME280;10614;53.198;6.570;2022-07-23T02:00:38;101895.25;;;14.87;100.00
20909;BME280;10614;53.198;6.570;2022-07-23T02:02:39;101892.66;;;14.86;100.00
20909;BME280;10614;53.198;6.570;2022-07-23T02:04:40;101890.00;;;14.86;100.00
20909;BME280;10614;53.198;6.570;2022-07-23T02:06:42;101890.94;;;14.85;100.00
20909;BME280;10614;53.198;6.570;2022-07-23T02:08:43;101891.00;;;14.83;100.00
20909;BME280;10614;53.198;6.570;2022-07-23T02:10:45;101883.91;;;14.84;100.00
20909;BME280;10614;53.198;6.570;2022-07-23T02:12:48;101881.34;;;14.82;100.00
20909;BME280;10614;53.198;6.570;2022-07-23T02:14:49;101884.00;;;14.82;100.00
20909;BME280;10614;53.198;6.570;2022-07-23T02:16:50;101884.09;;;14.79;100.00
20909;BME280;10614;53.198;6.570;2022-07-23T02:18:52;101890.25;;;14.80;100.00
20909;BME280;10614;53.198;6.570;2022-07-23T02:20:57;101881.56;;;14.76;100.00
20909;BME280;10614;53.198;6.570;2022-07-23T02:22:58;101888.72;;;14.74;100.00
20909;BME280;10614;53.198;6.570;2022-07-23T02:25:00;101882.56;;;14.73;100.00
20909;BME280;10614;53.198;6.570;2022-07-23T02:27:01;101885.16;;;14.75;100.00
20909;BME280;10614;53.198;6.570;2022-07-23T02:29:04;101882.69;;;14.70;100.00
20909;BME280;10614;53.198;6.570;2022-07-23T02:31:06;101881.94;;;14.67;100.00
20909;BME280;10614;53.198;6.570;2022-07-23T02:33:07;101875.03;;;14.63;100.00
20909;BME280;10614;53.198;6.570;2022-07-23T02:35:09;101883.06;;;14.61;100.00
20909;BME280;10614;53.198;6.570;2022-07-23T02:37:10;101880.53;;;14.58;100.00
20909;BME280;10614;53.198;6.570;2022-07-23T02:39:12;101877.03;;;14.57;100.00
20909;BME280;10614;53.198;6.570;2022-07-23T02:41:14;101881.47;;;14.57;100.00
20909;BME280;10614;53.198;6.570;2022-07-23T02:43:16;101885.09;;;14.54;100.00
20909;BME280;10614;53.198;6.570;2022-07-23T02:45:19;101882.47;;;14.53;100.00
20909;BME280;10614;53.198;6.570;2022-07-23T02:47:20;101879.00;;;14.51;100.00
20909;BME280;10614;53.198;6.570;2022-07-23T02:49:22;101882.53;;;14.51;100.00
20909;BME280;10614;53.198;6.570;2022-07-23T02:51:23;101880.94;;;14.47;100.00
20909;BME280;10614;53.198;6.570;2022-07-23T02:53:24;101883.59;;;14.47;100.00
20909;BME280;10614;53.198;6.570;2022-07-23T02:55:26;101885.34;;;14.47;100.00
20909;BME280;10614;53.198;6.570;2022-07-23T02:57:28;101881.03;;;14.44;100.00
20909;BME280;10614;53.198;6.570;2022-07-23T02:59:29;101890.84;;;14.42;100.00
20909;BME280;10614;53.198;6.570;2022-07-23T03:01:32;101894.41;;;14.41;100.00
20909;BME280;10614;53.198;6.570;2022-07-23T03:03:33;101897.06;;;14.41;100.00
20909;BME280;10614;53.198;6.570;2022-07-23T03:05:35;101890.84;;;14.42;100.00
20909;BME280;10614;53.198;6.570;2022-07-23T03:07:36;101891.75;;;14.41;100.00
20909;BME280;10614;53.198;6.570;2022-07-23T03:09:38;101890.91;;;14.41;100.00
20909;BME280;10614;53.198;6.570;2022-07-23T03:11:39;101882.09;;;14.40;100.00
20909;BME280;10614;53.198;6.570;2022-07-23T03:13:41;101879.56;;;14.37;100.00
20909;BME280;10614;53.198;6.570;2022-07-23T03:15:42;101882.19;;;14.37;100.00
20909;BME280;10614;53.198;6.570;2022-07-23T03:17:45;101882.19;;;14.37;100.00
20909;BME280;10614;53.198;6.570;2022-07-23T03:19:47;101880.50;;;14.36;100.00
20909;BME280;10614;53.198;6.570;2022-07-23T03:21:48;101879.75;;;14.32;100.00
20909;BME280;10614;53.198;6.570;2022-07-23T03:23:49;101884.13;;;14.33;100.00
20909;BME280;10614;53.198;6.570;2022-07-23T03:25:51;101885.91;;;14.33;100.00
20909;BME280;10614;53.198;6.570;2022-07-23T03:27:52;101890.34;;;14.32;100.00
20909;BME280;10614;53.198;6.570;2022-07-23T03:29:55;101881.72;;;14.27;100.00
20909;BME280;10614;53.198;6.570;2022-07-23T03:31:57;101893.28;;;14.25;100.00
20909;BME280;10614;53.198;6.570;2022-07-23T03:33:59;101895.06;;;14.24;100.00
20909;BME280;10614;53.198;6.570;2022-07-23T03:36:01;101887.09;;;14.26;100.00
20909;BME280;10614;53.198;6.570;2022-07-23T03:38:03;101887.09;;;14.26;100.00
20909;BME280;10614;53.198;6.570;2022-07-23T03:40:04;101880.03;;;14.25;100.00
20909;BME280;10614;53.198;6.570;2022-07-23T03:42:06;101883.63;;;14.24;100.00
20909;BME280;10614;53.198;6.570;2022-07-23T03:44:08;101887.19;;;14.23;100.00
20909;BME280;10614;53.198;6.570;2022-07-23T03:46:09;101877.56;;;14.20;100.00
20909;BME280;10614;53.198;6.570;2022-07-23T03:48:11;101883.72;;;14.21;100.00
20909;BME280;10614;53.198;6.570;2022-07-23T03:50:13;101881.03;;;14.22;100.00
20909;BME280;10614;53.198;6.570;2022-07-23T03:52:15;101883.53;;;14.25;100.00
20909;BME280;10614;53.198;6.570;2022-07-23T03:54:16;101888.03;;;14.23;100.00
20909;BME280;10614;53.198;6.570;2022-07-23T03:56:17;101886.31;;;14.22;100.00
20909;BME280;10614;53.198;6.570;2022-07-23T03:58:19;101886.31;;;14.22;100.00
20909;BME280;10614;53.198;6.570;2022-07-23T04:00:20;101883.81;;;14.19;100.00
20909;BME280;10614;53.198;6.570;2022-07-23T04:02:22;101892.72;;;14.17;100.00
20909;BME280;10614;53.198;6.570;2022-07-23T04:04:23;101886.56;;;14.16;100.00
20909;BME280;10614;53.198;6.570;2022-07-23T04:06:26;101884.78;;;14.17;100.00
20909;BME280;10614;53.198;6.570;2022-07-23T04:08:28;101883.03;;;14.15;100.00
20909;BME280;10614;53.198;6.570;2022-07-23T04:10:29;101887.44;;;14.17;100.00
20909;BME280;10614;53.198;6.570;2022-07-23T04:12:31;101883.97;;;14.14;100.00
20909;BME280;10614;53.198;6.570;2022-07-23T04:14:32;101883.97;;;14.14;100.00
20909;BME280;10614;53.198;6.570;2022-07-23T04:16:34;101884.03;;;14.13;100.00
20909;BME280;10614;53.198;6.570;2022-07-23T04:18:35;101882.31;;;14.12;100.00
20909;BME280;10614;53.198;6.570;2022-07-23T04:20:37;101881.50;;;14.10;100.00
20909;BME280;10614;53.198;6.570;2022-07-23T04:22:39;101885.88;;;14.11;100.00
20909;BME280;10614;53.198;6.570;2022-07-23T04:24:41;101885.81;;;14.12;100.00
20909;BME280;10614;53.198;6.570;2022-07-23T04:26:42;101881.38;;;14.13;100.00
20909;BME280;10614;53.198;6.570;2022-07-23T04:28:44;101890.13;;;14.15;100.00
20909;BME280;10614;53.198;6.570;2022-07-23T04:30:45;101872.72;;;14.09;100.00
20909;BME280;10614;53.198;6.570;2022-07-23T04:32:47;101890.84;;;14.19;100.00
20909;BME280;10614;53.198;6.570;2022-07-23T04:34:48;101884.66;;;14.20;100.00
20909;BME280;10614;53.198;6.570;2022-07-23T04:36:50;101888.13;;;14.22;100.00
20909;BME280;10614;53.198;6.570;2022-07-23T04:38:53;101887.25;;;14.21;100.00
20909;BME280;10614;53.198;6.570;2022-07-23T04:40:54;101891.63;;;14.22;100.00
20909;BME280;10614;53.198;6.570;2022-07-23T04:42:56;101895.13;;;14.23;100.00
20909;BME280;10614;53.198;6.570;2022-07-23T04:44:58;101893.34;;;14.23;100.00
20909;BME280;10614;53.198;6.570;2022-07-23T04:46:59;101897.78;;;14.23;100.00
20909;BME280;10614;53.198;6.570;2022-07-23T04:49:00;101895.06;;;14.24;100.00
20909;BME280;10614;53.198;6.570;2022-07-23T04:51:02;101894.22;;;14.24;100.00
20909;BME280;10614;53.198;6.570;2022-07-23T04:53:04;101902.22;;;14.22;100.00
20909;BME280;10614;53.198;6.570;2022-07-23T04:55:07;101900.50;;;14.21;100.00
20909;BME280;10614;53.198;6.570;2022-07-23T04:57:09;101900.50;;;14.21;100.00
20909;BME280;10614;53.198;6.570;2022-07-23T04:59:10;101902.34;;;14.19;100.00
20909;BME280;10614;53.198;6.570;2022-07-23T05:01:12;101890.00;;;14.18;100.00
20909;BME280;10614;53.198;6.570;2022-07-23T05:03:13;101894.41;;;14.19;100.00
20909;BME280;10614;53.198;6.570;2022-07-23T05:05:15;101898.75;;;14.20;100.00
20909;BME280;10614;53.198;6.570;2022-07-23T05:07:16;101900.50;;;14.21;100.00
20909;BME280;10614;53.198;6.570;2022-07-23T05:09:18;101905.78;;;14.21;100.00
20909;BME280;10614;53.198;6.570;2022-07-23T05:11:20;101910.22;;;14.21;100.00
20909;BME280;10614;53.198;6.570;2022-07-23T05:13:22;101906.69;;;14.20;100.00
20909;BME280;10614;53.198;6.570;2022-07-23T05:15:23;101906.69;;;14.20;100.00
20909;BME280;10614;53.198;6.570;2022-07-23T05:17:25;101904.88;;;14.22;100.00
20909;BME280;10614;53.198;6.570;2022-07-23T05:19:26;101910.91;;;14.26;100.00
20909;BME280;10614;53.198;6.570;2022-07-23T05:21:29;101905.53;;;14.27;100.00
20909;BME280;10614;53.198;6.570;2022-07-23T05:23:30;101909.81;;;14.31;100.00
20909;BME280;10614;53.198;6.570;2022-07-23T05:25:32;101907.09;;;14.33;100.00
20909;BME280;10614;53.198;6.570;2022-07-23T05:27:34;101907.88;;;14.35;100.00
20909;BME280;10614;53.198;6.570;2022-07-23T05:29:36;101912.22;;;14.38;100.00
20909;BME280;10614;53.198;6.570;2022-07-23T05:31:37;101913.91;;;14.40;100.00
20909;BME280;10614;53.198;6.570;2022-07-23T05:33:39;101919.91;;;14.44;100.00
20909;BME280;10614;53.198;6.570;2022-07-23T05:35:40;101921.66;;;14.45;100.00
20909;BME280;10614;53.198;6.570;2022-07-23T05:37:42;101920.59;;;14.49;100.00
20909;BME280;10614;53.198;6.570;2022-07-23T05:39:43;101919.75;;;14.48;100.00
20909;BME280;10614;53.198;6.570;2022-07-23T05:41:44;101919.75;;;14.48;100.00
20909;BME280;10614;53.198;6.570;2022-07-23T05:43:47;101921.59;;;14.46;100.00
20909;BME280;10614;53.198;6.570;2022-07-23T05:45:49;101919.78;;;14.47;100.00
20909;BME280;10614;53.198;6.570;2022-07-23T05:47:50;101928.66;;;14.46;100.00
20909;BME280;10614;53.198;6.570;2022-07-23T05:49:52;101928.53;;;14.49;100.00
20909;BME280;10614;53.198;6.570;2022-07-23T05:51:53;101924.91;;;14.51;100.00
20909;BME280;10614;53.198;6.570;2022-07-23T05:53:55;101927.41;;;14.56;100.00
20909;BME280;10614;53.198;6.570;2022-07-23T05:55:56;101929.03;;;14.60;100.00
20909;BME280;10614;53.198;6.570;2022-07-23T05:57:58;101937.72;;;14.64;100.00
20909;BME280;10614;53.198;6.570;2022-07-23T06:00:02;101934.09;;;14.66;100.00
20909;BME280;10614;53.198;6.570;2022-07-23T06:02:04;101932.25;;;14.68;100.00
20909;BME280;10614;53.198;6.570;2022-07-23T06:04:05;101938.28;;;14.72;100.00
20909;BME280;10614;53.198;6.570;2022-07-23T06:06:07;101934.63;;;14.74;100.00
20909;BME280;10614;53.198;6.570;2022-07-23T06:08:08;101933.59;;;14.78;100.00
20909;BME280;10614;53.198;6.570;2022-07-23T06:10:10;101928.25;;;14.80;100.00
20909;BME280;10614;53.198;6.570;2022-07-23T06:12:11;101932.56;;;14.83;100.00
20909;BME280;10614;53.198;6.570;2022-07-23T06:14:13;101926.25;;;14.85;100.00
20909;BME280;10614;53.198;6.570;2022-07-23T06:16:16;101926.22;;;14.87;100.00
20909;BME280;10614;53.198;6.570;2022-07-23T06:18:17;101919.78;;;14.92;100.00
20909;BME280;10614;53.198;6.570;2022-07-23T06:20:18;101924.09;;;14.95;100.00
20909;BME280;10614;53.198;6.570;2022-07-23T06:22:20;101938.22;;;14.95;100.00
20909;BME280;10614;53.198;6.570;2022-07-23T06:24:22;101935.44;;;14.98;100.00
20909;BME280;10614;53.198;6.570;2022-07-23T06:26:23;101923.97;;;14.98;100.00
20909;BME280;10614;53.198;6.570;2022-07-23T06:28:24;101923.09;;;14.97;100.00
20909;BME280;10614;53.198;6.570;2022-07-23T06:30:26;101928.41;;;14.97;100.00
20909;BME280;10614;53.198;6.570;2022-07-23T06:32:29;101931.84;;;14.99;100.00
20909;BME280;10614;53.198;6.570;2022-07-23T06:34:30;101932.81;;;14.98;100.00
20909;BME280;10614;53.198;6.570;2022-07-23T06:36:32;101936.41;;;14.96;100.00
20909;BME280;10614;53.198;6.570;2022-07-23T06:38:33;101943.47;;;14.97;100.00
20909;BME280;10614;53.198;6.570;2022-07-23T06:40:35;101946.09;;;14.97;100.00
20909;BME280;10614;53.198;6.570;2022-07-23T06:42:37;101939.06;;;14.96;100.00
20909;BME280;10614;53.198;6.570;2022-07-23T06:44:39;101934.69;;;14.95;100.00
20909;BME280;10614;53.198;6.570;2022-07-23T06:46:40;101949.66;;;14.96;100.00
20909;BME280;10614;53.198;6.570;2022-07-23T06:48:43;101938.22;;;14.95;100.00
20909;BME280;10614;53.198;6.570;2022-07-23T06:50:45;101939.16;;;14.94;100.00
20909;BME280;10614;53.198;6.570;2022-07-23T06:52:46;101942.66;;;14.95;100.00
20909;BME280;10614;53.198;6.570;2022-07-23T06:54:48;101957.69;;;14.94;100.00
20909;BME280;10614;53.198;6.570;2022-07-23T06:56:49;101961.03;;;14.99;100.00
20909;BME280;10614;53.198;6.570;2022-07-23T06:58:51;101954.97;;;14.96;100.00
20909;BME280;10614;53.198;6.570;2022-07-23T07:00:52;101962.06;;;14.95;100.00
20909;BME280;10614;53.198;6.570;2022-07-23T07:02:54;101958.50;;;14.96;100.00
20909;BME280;10614;53.198;6.570;2022-07-23T07:04:57;101967.31;;;14.97;100.00
20909;BME280;10614;53.198;6.570;2022-07-23T07:06:58;101965.34;;;15.02;100.00
20909;BME280;10614;53.198;6.570;2022-07-23T07:09:00;101968.00;;;15.02;100.00
20909;BME280;10614;53.198;6.570;2022-07-23T07:11:01;101972.38;;;15.03;100.00
20909;BME280;10614;53.198;6.570;2022-07-23T07:13:03;101970.44;;;15.07;100.00
20909;BME280;10614;53.198;6.570;2022-07-23T07:15:04;101962.44;;;15.08;100.00
20909;BME280;10614;53.198;6.570;2022-07-23T07:17:06;101960.59;;;15.10;100.00
20909;BME280;10614;53.198;6.570;2022-07-23T07:19:07;101965.81;;;15.12;100.00
20909;BME280;10614;53.198;6.570;2022-07-23T07:21:11;101970.03;;;15.17;100.00
20909;BME280;10614;53.198;6.570;2022-07-23T07:23:12;101975.06;;;15.24;100.00
20909;BME280;10614;53.198;6.570;2022-07-23T07:25:14;101969.38;;;15.33;100.00
20909;BME280;10614;53.198;6.570;2022-07-23T07:27:15;101968.97;;;15.42;100.00
20909;BME280;10614;53.198;6.570;2022-07-23T07:29:17;101969.53;;;15.50;98.77
20909;BME280;10614;53.198;6.570;2022-07-23T07:31:19;101973.66;;;15.57;98.65
20909;BME280;10614;53.198;6.570;2022-07-23T07:33:20;101976.75;;;15.67;98.64
20909;BME280;10614;53.198;6.570;2022-07-23T07:35:22;101974.59;;;15.77;97.59
20909;BME280;10614;53.198;6.570;2022-07-23T07:37:27;101978.06;;;15.79;96.71
20909;BME280;10614;53.198;6.570;2022-07-23T07:39:28;101977.84;;;15.83;95.49
20909;BME280;10614;53.198;6.570;2022-07-23T07:41:32;101977.72;;;15.87;95.02
20909;BME280;10614;53.198;6.570;2022-07-23T07:43:34;101985.56;;;15.90;95.14
20909;BME280;10614;53.198;6.570;2022-07-23T07:45:35;101989.78;;;15.94;94.23
20909;BME280;10614;53.198;6.570;2022-07-23T07:47:37;101983.41;;;15.98;93.03
20909;BME280;10614;53.198;6.570;2022-07-23T07:49:38;101991.13;;;16.04;87.56
20909;BME280;10614;53.198;6.570;2022-07-23T07:51:40;101987.47;;;16.07;86.67
20909;BME280;10614;53.198;6.570;2022-07-23T07:53:43;101992.63;;;16.10;86.27
20909;BME280;10614;53.198;6.570;2022-07-23T07:55:44;102007.22;;;16.20;84.94
20909;BME280;10614;53.198;6.570;2022-07-23T07:57:46;102006.16;;;16.24;82.95
20909;BME280;10614;53.198;6.570;2022-07-23T07:59:47;102004.22;;;16.28;81.70
20909;BME280;10614;53.198;6.570;2022-07-23T08:01:48;102009.59;;;16.26;81.60
20909;BME280;10614;53.198;6.570;2022-07-23T08:03:50;102008.66;;;16.27;83.01
20909;BME280;10614;53.198;6.570;2022-07-23T08:05:51;102011.25;;;16.29;83.01
20909;BME280;10614;53.198;6.570;2022-07-23T08:07:53;102009.38;;;16.31;82.62
20909;BME280;10614;53.198;6.570;2022-07-23T08:09:56;102012.00;;;16.32;82.00
20909;BME280;10614;53.198;6.570;2022-07-23T08:11:57;102003.94;;;16.34;81.86
20909;BME280;10614;53.198;6.570;2022-07-23T08:13:59;102004.50;;;16.40;82.29
20909;BME280;10614;53.198;6.570;2022-07-23T08:16:00;102001.72;;;16.43;80.62
20909;BME280;10614;53.198;6.570;2022-07-23T08:18:02;102001.81;;;16.42;80.22
20909;BME280;10614;53.198;6.570;2022-07-23T08:20:03;102001.66;;;16.45;81.31
20909;BME280;10614;53.198;6.570;2022-07-23T08:22:05;101999.00;;;16.45;82.39
20909;BME280;10614;53.198;6.570;2022-07-23T08:24:07;101999.63;;;16.50;81.25
20909;BME280;10614;53.198;6.570;2022-07-23T08:26:10;101998.63;;;16.53;80.85
20909;BME280;10614;53.198;6.570;2022-07-23T08:28:12;102004.72;;;16.55;80.83
20909;BME280;10614;53.198;6.570;2022-07-23T08:30:14;102005.53;;;16.57;81.99
20909;BME280;10614;53.198;6.570;2022-07-23T08:32:16;102014.16;;;16.62;81.93
20909;BME280;10614;53.198;6.570;2022-07-23T08:34:17;102008.56;;;16.68;79.90
20909;BME280;10614;53.198;6.570;2022-07-23T08:36:19;102017.91;;;16.77;79.42
20909;BME280;10614;53.198;6.570;2022-07-23T08:38:21;102018.28;;;16.88;79.34
20909;BME280;10614;53.198;6.570;2022-07-23T08:40:23;102014.63;;;16.91;77.96
20909;BME280;10614;53.198;6.570;2022-07-23T08:42:28;102011.97;;;16.91;78.17
20909;BME280;10614;53.198;6.570;2022-07-23T08:44:29;102026.75;;;16.96;77.31
20909;BME280;10614;53.198;6.570;2022-07-23T08:46:31;102012.44;;;16.99;76.41
20909;BME280;10614;53.198;6.570;2022-07-23T08:48:34;102027.16;;;17.06;76.11
20909;BME280;10614;53.198;6.570;2022-07-23T08:50:36;102021.16;;;17.02;77.29
20909;BME280;10614;53.198;6.570;2022-07-23T08:52:38;102020.13;;;17.05;77.93
20909;BME280;10614;53.198;6.570;2022-07-23T08:54:40;102022.47;;;17.11;77.32
20909;BME280;10614;53.198;6.570;2022-07-23T08:56:41;102026.09;;;17.10;77.44
20909;BME280;10614;53.198;6.570;2022-07-23T08:58:44;102023.50;;;17.08;78.15
20909;BME280;10614;53.198;6.570;2022-07-23T09:00:46;102013.41;;;17.15;76.53
20909;BME280;10614;53.198;6.570;2022-07-23T09:02:48;102013.41;;;17.15;77.41
20909;BME280;10614;53.198;6.570;2022-07-23T09:04:50;102013.69;;;17.09;76.86
20909;BME280;10614;53.198;6.570;2022-07-23T09:06:51;102025.13;;;17.11;78.88
20909;BME280;10614;53.198;6.570;2022-07-23T09:08:53;102012.34;;;17.19;77.29
20909;BME280;10614;53.198;6.570;2022-07-23T09:10:54;102018.66;;;17.17;78.45
20909;BME280;10614;53.198;6.570;2022-07-23T09:12:56;102018.50;;;17.20;79.09
20909;BME280;10614;53.198;6.570;2022-07-23T09:15:00;102020.47;;;17.16;78.82
20909;BME280;10614;53.198;6.570;2022-07-23T09:17:11;102020.47;;;17.16;78.56
20909;BME280;10614;53.198;6.570;2022-07-23T09:19:12;102022.03;;;17.20;79.17
20909;BME280;10614;53.198;6.570;2022-07-23T09:21:18;102018.44;;;17.21;79.03
20909;BME280;10614;53.198;6.570;2022-07-23T09:23:20;102022.03;;;17.20;78.81
20909;BME280;10614;53.198;6.570;2022-07-23T09:25:29;102029.78;;;17.25;78.76
20909;BME280;10614;53.198;6.570;2022-07-23T09:27:45;102025.41;;;17.24;78.92
20909;BME280;10614;53.198;6.570;2022-07-23T09:29:54;102027.63;;;17.33;78.85
20909;BME280;10614;53.198;6.570;2022-07-23T09:31:58;102035.47;;;17.54;78.60
20909;BME280;10614;53.198;6.570;2022-07-23T09:34:09;102028.13;;;17.59;78.34
20909;BME280;10614;53.198;6.570;2022-07-23T09:36:11;102023.47;;;17.62;77.98
20909;BME280;10614;53.198;6.570;2022-07-23T09:38:13;102022.31;;;17.68;78.37
20909;BME280;10614;53.198;6.570;2022-07-23T09:40:15;102022.94;;;17.73;78.52
20909;BME280;10614;53.198;6.570;2022-07-23T09:42:18;102019.44;;;17.72;77.78
20909;BME280;10614;53.198;6.570;2022-07-23T09:44:20;102021.22;;;17.72;77.78
20909;BME280;10614;53.198;6.570;2022-07-23T09:46:22;102027.41;;;17.72;76.73
20909;BME280;10614;53.198;6.570;2022-07-23T09:48:26;102028.28;;;17.73;75.70
20909;BME280;10614;53.198;6.570;2022-07-23T09:50:27;102027.09;;;17.79;74.84
20909;BME280;10614;53.198;6.570;2022-07-23T09:52:29;102030.94;;;17.73;75.93
20909;BME280;10614;53.198;6.570;2022-07-23T09:54:31;102031.00;;;17.71;76.64
20909;BME280;10614;53.198;6.570;2022-07-23T09:56:34;102029.19;;;17.72;75.61
20909;BME280;10614;53.198;6.570;2022-07-23T09:58:37;102031.63;;;17.77;76.01
20909;BME280;10614;53.198;6.570;2022-07-23T10:00:44;102036.09;;;17.76;76.60
20909;BME280;10614;53.198;6.570;2022-07-23T10:02:49;102038.75;;;17.76;76.33
20909;BME280;10614;53.198;6.570;2022-07-23T10:04:52;102038.81;;;17.75;75.88
20909;BME280;10614;53.198;6.570;2022-07-23T10:06:55;102039.78;;;17.73;75.61
20909;BME280;10614;53.198;6.570;2022-07-23T10:08:56;102035.31;;;17.74;75.96
20909;BME280;10614;53.198;6.570;2022-07-23T10:10:59;102038.59;;;17.79;75.61
20909;BME280;10614;53.198;6.570;2022-07-23T10:13:02;102032.41;;;17.79;75.89
20909;BME280;10614;53.198;6.570;2022-07-23T10:15:21;102040.34;;;17.80;76.26
20909;BME280;10614;53.198;6.570;2022-07-23T10:17:22;102040.91;;;17.87;76.75
20909;BME280;10614;53.198;6.570;2022-07-23T10:19:24;102048.97;;;17.85;76.19
20909;BME280;10614;53.198;6.570;2022-07-23T10:21:30;102051.81;;;17.82;76.63
20909;BME280;10614;53.198;6.570;2022-07-23T10:23:35;102057.22;;;17.79;76.78
20909;BME280;10614;53.198;6.570;2022-07-23T10:25:40;102047.41;;;17.81;76.75
20909;BME280;10614;53.198;6.570;2022-07-23T10:27:45;102050.94;;;17.82;77.33
20909;BME280;10614;53.198;6.570;2022-07-23T10:29:50;102056.03;;;17.86;77.77
20909;BME280;10614;53.198;6.570;2022-07-23T10:31:55;102053.38;;;17.86;77.61
20909;BME280;10614;53.198;6.570;2022-07-23T10:34:02;102055.63;;;17.94;76.09